sensor_id;sensor_type;location;lat;lon;timestamp;P1;durP1;ratioP1;P2;durP2;ratioP2
10293;SDS011;5192;50.328;7.610;2023-10-13T00:02:00;11.67;;;8.33;;
10293;SDS011;5192;50.328;7.610;2023-10-13T00:04:30;9.43;;;7.77;;
10293;SDS011;5192;50.328;7.610;2023-10-13T00:07:02;11.67;;;8.57;;
10293;SDS011;5192;50.328;7.610;2023-10-13T00:09:29;10.13;;;8.60;;
10293;SDS011;5192;50.328;7.610;2023-10-13T00:12:01;12.93;;;8.77;;
10293;SDS011;5192;50.328;7.610;2023-10-13T00:14:34;11.10;;;8.40;;
10293;SDS011;5192;50.328;7.610;2023-10-13T00:17:07;15.20;;;9.27;;
10293;SDS011;5192;50.328;7.610;2023-10-13T00:19:36;10.93;;;8.40;;
10293;SDS011;5192;50.328;7.610;2023-10-13T00:22:12;11.80;;;8.03;;
10293;SDS011;5192;50.328;7.610;2023-10-13T00:24:45;11.80;;;8.77;;
10293;SDS011;5192;50.328;7.610;2023-10-13T00:27:20;11.63;;;9.15;;
10293;SDS011;5192;50.328;7.610;2023-10-13T00:30:06;11.70;;;8.67;;
10293;SDS011;5192;50.328;7.610;2023-10-13T00:32:49;11.43;;;8.20;;
10293;SDS011;5192;50.328;7.610;2023-10-13T00:35:22;11.00;;;8.50;;
10293;SDS011;5192;50.328;7.610;2023-10-13T00:38:00;14.93;;;9.40;;
10293;SDS011;5192;50.328;7.610;2023-10-13T00:40:49;13.93;;;9.03;;
10293;SDS011;5192;50.328;7.610;2023-10-13T00:43:23;10.97;;;8.77;;
10293;SDS011;5192;50.328;7.610;2023-10-13T00:45:56;13.77;;;9.10;;
10293;SDS011;5192;50.328;7.610;2023-10-13T00:48:29;13.63;;;8.73;;
10293;SDS011;5192;50.328;7.610;2023-10-13T00:51:12;13.50;;;9.23;;
10293;SDS011;5192;50.328;7.610;2023-10-13T00:53:59;12.40;;;8.13;;
10293;SDS011;5192;50.328;7.610;2023-10-13T00:56:34;14.67;;;8.47;;
10293;SDS011;5192;50.328;7.610;2023-10-13T00:59:06;13.90;;;8.43;;
10293;SDS011;5192;50.328;7.610;2023-10-13T01:01:36;12.77;;;8.70;;
10293;SDS011;5192;50.328;7.610;2023-10-13T01:04:02;10.85;;;8.13;;
10293;SDS011;5192;50.328;7.610;2023-10-13T01:06:35;12.47;;;8.53;;
10293;SDS011;5192;50.328;7.610;2023-10-13T01:09:04;13.27;;;8.07;;
10293;SDS011;5192;50.328;7.610;2023-10-13T01:14:28;10.97;;;8.10;;
10293;SDS011;5192;50.328;7.610;2023-10-13T01:16:56;12.37;;;8.13;;
10293;SDS011;5192;50.328;7.610;2023-10-13T01:19:23;11.02;;;7.70;;
10293;SDS011;5192;50.328;7.610;2023-10-13T01:21:53;9.40;;;7.60;;
10293;SDS011;5192;50.328;7.610;2023-10-13T01:24:39;10.55;;;7.70;;
10293;SDS011;5192;50.328;7.610;2023-10-13T01:27:07;13.27;;;8.60;;
10293;SDS011;5192;50.328;7.610;2023-10-13T01:29:45;11.02;;;7.72;;
10293;SDS011;5192;50.328;7.610;2023-10-13T01:32:23;12.87;;;8.50;;
10293;SDS011;5192;50.328;7.610;2023-10-13T01:34:51;12.60;;;9.07;;
10293;SDS011;5192;50.328;7.610;2023-10-13T01:37:24;9.70;;;8.77;;
10293;SDS011;5192;50.328;7.610;2023-10-13T01:39:51;12.53;;;8.70;;
10293;SDS011;5192;50.328;7.610;2023-10-13T01:42:19;12.37;;;8.40;;
10293;SDS011;5192;50.328;7.610;2023-10-13T01:44:48;11.50;;;8.63;;
10293;SDS011;5192;50.328;7.610;2023-10-13T01:47:16;9.27;;;8.00;;
10293;SDS011;5192;50.328;7.610;2023-10-13T01:49:42;13.63;;;8.80;;
10293;SDS011;5192;50.328;7.610;2023-10-13T01:52:13;10.85;;;8.32;;
10293;SDS011;5192;50.328;7.610;2023-10-13T01:54:46;11.10;;;8.03;;
10293;SDS011;5192;50.328;7.610;2023-10-13T01:57:16;11.03;;;8.17;;
10293;SDS011;5192;50.328;7.610;2023-10-13T01:59:44;11.57;;;7.90;;
10293;SDS011;5192;50.328;7.610;2023-10-13T02:02:14;11.30;;;8.10;;
10293;SDS011;5192;50.328;7.610;2023-10-13T02:04:41;10.30;;;7.05;;
10293;SDS011;5192;50.328;7.610;2023-10-13T02:07:21;10.18;;;7.05;;
10293;SDS011;5192;50.328;7.610;2023-10-13T02:09:56;9.90;;;7.13;;
10293;SDS011;5192;50.328;7.610;2023-10-13T02:12:25;12.03;;;7.20;;
10293;SDS011;5192;50.328;7.610;2023-10-13T02:15:03;11.98;;;6.75;;
10293;SDS011;5192;50.328;7.610;2023-10-13T02:17:31;8.52;;;6.45;;
10293;SDS011;5192;50.328;7.610;2023-10-13T02:20:08;10.20;;;7.73;;
10293;SDS011;5192;50.328;7.610;2023-10-13T02:22:40;11.55;;;7.05;;
10293;SDS011;5192;50.328;7.610;2023-10-13T02:25:19;11.83;;;7.43;;
10293;SDS011;5192;50.328;7.610;2023-10-13T02:28:12;9.40;;;8.00;;
10293;SDS011;5192;50.328;7.610;2023-10-13T02:30:43;11.27;;;8.43;;
10293;SDS011;5192;50.328;7.610;2023-10-13T02:33:14;11.77;;;8.40;;
10293;SDS011;5192;50.328;7.610;2023-10-13T02:35:46;12.95;;;7.85;;
10293;SDS011;5192;50.328;7.610;2023-10-13T02:38:18;10.55;;;7.70;;
10293;SDS011;5192;50.328;7.610;2023-10-13T02:41:12;9.80;;;8.60;;
10293;SDS011;5192;50.328;7.610;2023-10-13T02:43:51;11.43;;;8.15;;
10293;SDS011;5192;50.328;7.610;2023-10-13T02:46:18;9.82;;;7.65;;
10293;SDS011;5192;50.328;7.610;2023-10-13T02:48:52;9.87;;;7.37;;
10293;SDS011;5192;50.328;7.610;2023-10-13T02:51:20;11.05;;;8.10;;
10293;SDS011;5192;50.328;7.610;2023-10-13T02:54:03;14.60;;;7.27;;
10293;SDS011;5192;50.328;7.610;2023-10-13T02:56:38;10.33;;;7.13;;
10293;SDS011;5192;50.328;7.610;2023-10-13T02:59:23;9.40;;;6.65;;
10293;SDS011;5192;50.328;7.610;2023-10-13T03:02:06;12.20;;;7.70;;
10293;SDS011;5192;50.328;7.610;2023-10-13T03:04:47;8.52;;;6.90;;
10293;SDS011;5192;50.328;7.610;2023-10-13T03:07:48;9.87;;;6.33;;
10293;SDS011;5192;50.328;7.610;2023-10-13T03:10:17;11.30;;;6.80;;
10293;SDS011;5192;50.328;7.610;2023-10-13T03:12:45;11.30;;;7.50;;
10293;SDS011;5192;50.328;7.610;2023-10-13T03:15:17;11.03;;;7.67;;
10293;SDS011;5192;50.328;7.610;2023-10-13T03:17:49;11.17;;;7.47;;
10293;SDS011;5192;50.328;7.610;2023-10-13T03:20:16;11.67;;;7.70;;
10293;SDS011;5192;50.328;7.610;2023-10-13T03:22:53;11.50;;;7.23;;
10293;SDS011;5192;50.328;7.610;2023-10-13T03:25:21;9.20;;;6.40;;
10293;SDS011;5192;50.328;7.610;2023-10-13T03:27:50;11.20;;;6.60;;
10293;SDS011;5192;50.328;7.610;2023-10-13T03:30:19;14.73;;;6.80;;
10293;SDS011;5192;50.328;7.610;2023-10-13T03:32:56;9.13;;;6.83;;
10293;SDS011;5192;50.328;7.610;2023-10-13T03:35:24;10.47;;;5.77;;
10293;SDS011;5192;50.328;7.610;2023-10-13T03:37:55;10.80;;;6.40;;
10293;SDS011;5192;50.328;7.610;2023-10-13T03:40:23;11.47;;;6.40;;
10293;SDS011;5192;50.328;7.610;2023-10-13T03:45:41;11.23;;;6.33;;
10293;SDS011;5192;50.328;7.610;2023-10-13T03:48:15;8.90;;;6.20;;
10293;SDS011;5192;50.328;7.610;2023-10-13T03:51:01;10.37;;;6.23;;
10293;SDS011;5192;50.328;7.610;2023-10-13T03:53:41;14.37;;;6.20;;
10293;SDS011;5192;50.328;7.610;2023-10-13T03:56:21;8.90;;;6.47;;
10293;SDS011;5192;50.328;7.610;2023-10-13T03:59:11;11.73;;;7.15;;
10293;SDS011;5192;50.328;7.610;2023-10-13T04:01:43;12.65;;;8.15;;
10293;SDS011;5192;50.328;7.610;2023-10-13T04:04:30;11.05;;;7.82;;
10293;SDS011;5192;50.328;7.610;2023-10-13T04:07:16;9.88;;;7.82;;
10293;SDS011;5192;50.328;7.610;2023-10-13T04:10:06;8.60;;;7.33;;
10293;SDS011;5192;50.328;7.610;2023-10-13T04:12:52;12.32;;;7.57;;
10293;SDS011;5192;50.328;7.610;2023-10-13T04:15:37;14.05;;;7.78;;
10293;SDS011;5192;50.328;7.610;2023-10-13T04:18:09;12.80;;;7.47;;
10293;SDS011;5192;50.328;7.610;2023-10-13T04:20:57;10.98;;;7.03;;
10293;SDS011;5192;50.328;7.610;2023-10-13T04:23:44;9.98;;;7.47;;
10293;SDS011;5192;50.328;7.610;2023-10-13T04:26:51;11.23;;;6.63;;
10293;SDS011;5192;50.328;7.610;2023-10-13T04:29:37;12.20;;;6.83;;
10293;SDS011;5192;50.328;7.610;2023-10-13T04:32:39;10.73;;;6.60;;
10293;SDS011;5192;50.328;7.610;2023-10-13T04:35:12;12.82;;;7.72;;
10293;SDS011;5192;50.328;7.610;2023-10-13T04:37:43;10.73;;;7.10;;
10293;SDS011;5192;50.328;7.610;2023-10-13T04:40:27;9.13;;;6.00;;
10293;SDS011;5192;50.328;7.610;2023-10-13T04:43:01;13.13;;;9.30;;
10293;SDS011;5192;50.328;7.610;2023-10-13T04:45:52;13.43;;;6.57;;
10293;SDS011;5192;50.328;7.610;2023-10-13T04:48:25;13.10;;;6.75;;
10293;SDS011;5192;50.328;7.610;2023-10-13T04:50:58;10.30;;;6.47;;
10293;SDS011;5192;50.328;7.610;2023-10-13T04:53:46;14.23;;;7.13;;
10293;SDS011;5192;50.328;7.610;2023-10-13T04:56:30;11.15;;;6.53;;
10293;SDS011;5192;50.328;7.610;2023-10-13T04:59:08;10.30;;;6.05;;
10293;SDS011;5192;50.328;7.610;2023-10-13T05:01:53;12.48;;;6.15;;
10293;SDS011;5192;50.328;7.610;2023-10-13T05:04:50;10.80;;;6.50;;
10293;SDS011;5192;50.328;7.610;2023-10-13T05:07:36;13.93;;;6.20;;
10293;SDS011;5192;50.328;7.610;2023-10-13T05:10:22;10.00;;;5.97;;
10293;SDS011;5192;50.328;7.610;2023-10-13T05:13:13;13.50;;;5.97;;
10293;SDS011;5192;50.328;7.610;2023-10-13T05:15:59;11.98;;;6.47;;
10293;SDS011;5192;50.328;7.610;2023-10-13T05:18:44;10.10;;;6.30;;
10293;SDS011;5192;50.328;7.610;2023-10-13T05:21:31;9.77;;;5.87;;
10293;SDS011;5192;50.328;7.610;2023-10-13T05:24:16;11.57;;;6.00;;
10293;SDS011;5192;50.328;7.610;2023-10-13T05:27:02;10.53;;;5.80;;
10293;SDS011;5192;50.328;7.610;2023-10-13T05:29:46;9.48;;;5.85;;
10293;SDS011;5192;50.328;7.610;2023-10-13T05:32:35;10.43;;;6.38;;
10293;SDS011;5192;50.328;7.610;2023-10-13T05:35:21;11.40;;;6.03;;
10293;SDS011;5192;50.328;7.610;2023-10-13T05:38:05;14.02;;;6.07;;
10293;SDS011;5192;50.328;7.610;2023-10-13T05:40:57;8.73;;;5.50;;
10293;SDS011;5192;50.328;7.610;2023-10-13T05:44:02;11.18;;;5.57;;
10293;SDS011;5192;50.328;7.610;2023-10-13T05:46:48;13.05;;;5.65;;
10293;SDS011;5192;50.328;7.610;2023-10-13T05:49:36;11.33;;;6.37;;
10293;SDS011;5192;50.328;7.610;2023-10-13T05:52:28;8.60;;;5.77;;
10293;SDS011;5192;50.328;7.610;2023-10-13T05:55:27;12.57;;;6.23;;
10293;SDS011;5192;50.328;7.610;2023-10-13T05:58:14;12.73;;;6.30;;
10293;SDS011;5192;50.328;7.610;2023-10-13T06:01:02;13.70;;;6.32;;
10293;SDS011;5192;50.328;7.610;2023-10-13T06:03:48;11.37;;;5.90;;
10293;SDS011;5192;50.328;7.610;2023-10-13T06:06:32;9.13;;;5.20;;
10293;SDS011;5192;50.328;7.610;2023-10-13T06:09:19;10.32;;;5.85;;
10293;SDS011;5192;50.328;7.610;2023-10-13T06:12:04;10.27;;;6.30;;
10293;SDS011;5192;50.328;7.610;2023-10-13T06:14:51;10.73;;;5.70;;
10293;SDS011;5192;50.328;7.610;2023-10-13T06:17:36;10.55;;;5.68;;
10293;SDS011;5192;50.328;7.610;2023-10-13T06:20:21;12.20;;;6.10;;
10293;SDS011;5192;50.328;7.610;2023-10-13T06:23:06;9.97;;;5.97;;
10293;SDS011;5192;50.328;7.610;2023-10-13T06:25:51;7.93;;;5.87;;
10293;SDS011;5192;50.328;7.610;2023-10-13T06:28:35;11.17;;;5.93;;
10293;SDS011;5192;50.328;7.610;2023-10-13T06:31:13;10.77;;;6.20;;
10293;SDS011;5192;50.328;7.610;2023-10-13T06:33:50;9.93;;;6.23;;
10293;SDS011;5192;50.328;7.610;2023-10-13T06:36:17;7.90;;;5.63;;
10293;SDS011;5192;50.328;7.610;2023-10-13T06:39:04;8.97;;;5.83;;
10293;SDS011;5192;50.328;7.610;2023-10-13T06:42:07;11.50;;;5.67;;
10293;SDS011;5192;50.328;7.610;2023-10-13T06:44:35;10.48;;;6.05;;
10293;SDS011;5192;50.328;7.610;2023-10-13T06:47:21;11.82;;;5.72;;
10293;SDS011;5192;50.328;7.610;2023-10-13T06:50:09;10.57;;;5.72;;
10293;SDS011;5192;50.328;7.610;2023-10-13T06:52:45;11.68;;;6.85;;
10293;SDS011;5192;50.328;7.610;2023-10-13T06:55:14;9.50;;;5.80;;
10293;SDS011;5192;50.328;7.610;2023-10-13T06:57:50;17.17;;;5.77;;
10293;SDS011;5192;50.328;7.610;2023-10-13T07:00:35;8.93;;;5.40;;
10293;SDS011;5192;50.328;7.610;2023-10-13T07:03:18;15.80;;;5.90;;
10293;SDS011;5192;50.328;7.610;2023-10-13T07:05:45;8.95;;;5.75;;
10293;SDS011;5192;50.328;7.610;2023-10-13T07:08:14;15.43;;;6.75;;
10293;SDS011;5192;50.328;7.610;2023-10-13T07:10:54;14.53;;;5.97;;
10293;SDS011;5192;50.328;7.610;2023-10-13T07:13:33;10.75;;;5.75;;
10293;SDS011;5192;50.328;7.610;2023-10-13T07:16:03;11.20;;;6.30;;
10293;SDS011;5192;50.328;7.610;2023-10-13T07:18:42;13.60;;;6.03;;
10293;SDS011;5192;50.328;7.610;2023-10-13T07:21:16;17.33;;;6.70;;
10293;SDS011;5192;50.328;7.610;2023-10-13T07:23:43;12.07;;;5.80;;
10293;SDS011;5192;50.328;7.610;2023-10-13T07:26:25;16.30;;;5.90;;
10293;SDS011;5192;50.328;7.610;2023-10-13T07:28:55;12.83;;;5.73;;
10293;SDS011;5192;50.328;7.610;2023-10-13T07:31:22;15.93;;;6.30;;
10293;SDS011;5192;50.328;7.610;2023-10-13T07:33:53;12.10;;;5.77;;
10293;SDS011;5192;50.328;7.610;2023-10-13T07:36:31;13.30;;;6.38;;
10293;SDS011;5192;50.328;7.610;2023-10-13T07:39:04;10.25;;;5.28;;
10293;SDS011;5192;50.328;7.610;2023-10-13T07:41:50;12.90;;;5.90;;
10293;SDS011;5192;50.328;7.610;2023-10-13T07:44:29;14.85;;;6.00;;
10293;SDS011;5192;50.328;7.610;2023-10-13T07:47:09;10.85;;;5.50;;
10293;SDS011;5192;50.328;7.610;2023-10-13T07:49:37;14.88;;;5.75;;
10293;SDS011;5192;50.328;7.610;2023-10-13T07:52:07;14.70;;;6.05;;
10293;SDS011;5192;50.328;7.610;2023-10-13T07:54:46;11.35;;;5.45;;
10293;SDS011;5192;50.328;7.610;2023-10-13T07:57:15;13.10;;;5.78;;
10293;SDS011;5192;50.328;7.610;2023-10-13T07:59:42;14.73;;;6.25;;
10293;SDS011;5192;50.328;7.610;2023-10-13T08:02:19;11.38;;;5.30;;
10293;SDS011;5192;50.328;7.610;2023-10-13T08:05:08;11.65;;;5.57;;
10293;SDS011;5192;50.328;7.610;2023-10-13T08:07:40;9.30;;;5.90;;
10293;SDS011;5192;50.328;7.610;2023-10-13T08:10:09;10.20;;;5.90;;
10293;SDS011;5192;50.328;7.610;2023-10-13T08:12:36;13.15;;;5.90;;
10293;SDS011;5192;50.328;7.610;2023-10-13T08:15:03;8.82;;;5.07;;
10293;SDS011;5192;50.328;7.610;2023-10-13T08:17:57;12.25;;;5.90;;
10293;SDS011;5192;50.328;7.610;2023-10-13T08:20:44;11.02;;;5.07;;
10293;SDS011;5192;50.328;7.610;2023-10-13T08:23:11;10.98;;;5.90;;
10293;SDS011;5192;50.328;7.610;2023-10-13T08:25:58;10.68;;;5.47;;
10293;SDS011;5192;50.328;7.610;2023-10-13T08:28:58;11.13;;;5.43;;
10293;SDS011;5192;50.328;7.610;2023-10-13T08:31:49;10.00;;;5.20;;
10293;SDS011;5192;50.328;7.610;2023-10-13T08:34:35;9.48;;;5.50;;
10293;SDS011;5192;50.328;7.610;2023-10-13T08:37:26;11.35;;;5.60;;
10293;SDS011;5192;50.328;7.610;2023-10-13T08:39:57;9.88;;;5.47;;
10293;SDS011;5192;50.328;7.610;2023-10-13T08:42:31;11.50;;;5.72;;
10293;SDS011;5192;50.328;7.610;2023-10-13T08:45:11;10.23;;;5.28;;
10293;SDS011;5192;50.328;7.610;2023-10-13T08:47:49;13.18;;;6.10;;
10293;SDS011;5192;50.328;7.610;2023-10-13T08:50:44;11.93;;;5.80;;
10293;SDS011;5192;50.328;7.610;2023-10-13T08:53:19;10.40;;;5.88;;
10293;SDS011;5192;50.328;7.610;2023-10-13T08:56:08;8.85;;;5.82;;
10293;SDS011;5192;50.328;7.610;2023-10-13T08:58:55;7.05;;;5.00;;
10293;SDS011;5192;50.328;7.610;2023-10-13T09:01:34;10.68;;;5.80;;
10293;SDS011;5192;50.328;7.610;2023-10-13T09:04:08;13.00;;;5.93;;
10293;SDS011;5192;50.328;7.610;2023-10-13T09:07:09;9.55;;;6.10;;
10293;SDS011;5192;50.328;7.610;2023-10-13T09:09:57;9.07;;;6.30;;
10293;SDS011;5192;50.328;7.610;2023-10-13T09:12:24;7.78;;;5.88;;
10293;SDS011;5192;50.328;7.610;2023-10-13T09:15:14;10.95;;;6.45;;
10293;SDS011;5192;50.328;7.610;2023-10-13T09:18:00;9.68;;;6.22;;
10293;SDS011;5192;50.328;7.610;2023-10-13T09:20:41;11.25;;;6.53;;
10293;SDS011;5192;50.328;7.610;2023-10-13T09:23:10;8.80;;;5.45;;
10293;SDS011;5192;50.328;7.610;2023-10-13T09:25:50;10.38;;;6.30;;
10293;SDS011;5192;50.328;7.610;2023-10-13T09:28:34;9.27;;;6.68;;
10293;SDS011;5192;50.328;7.610;2023-10-13T09:31:03;9.60;;;6.30;;
10293;SDS011;5192;50.328;7.610;2023-10-13T09:33:36;10.55;;;5.95;;
10293;SDS011;5192;50.328;7.610;2023-10-13T09:36:02;7.38;;;6.60;;
10293;SDS011;5192;50.328;7.610;2023-10-13T09:38:48;11.73;;;6.65;;
10293;SDS011;5192;50.328;7.610;2023-10-13T09:41:26;9.73;;;6.50;;
10293;SDS011;5192;50.328;7.610;2023-10-13T09:43:57;12.07;;;6.95;;
10293;SDS011;5192;50.328;7.610;2023-10-13T09:46:25;9.43;;;6.22;;
10293;SDS011;5192;50.328;7.610;2023-10-13T09:48:58;8.77;;;6.60;;
10293;SDS011;5192;50.328;7.610;2023-10-13T09:51:34;9.20;;;6.32;;
10293;SDS011;5192;50.328;7.610;2023-10-13T09:56:35;10.07;;;6.63;;
10293;SDS011;5192;50.328;7.610;2023-10-13T09:59:26;9.35;;;6.78;;
10293;SDS011;5192;50.328;7.610;2023-10-13T10:02:09;8.25;;;6.93;;
10293;SDS011;5192;50.328;7.610;2023-10-13T10:04:54;10.55;;;6.80;;
10293;SDS011;5192;50.328;7.610;2023-10-13T10:07:57;9.82;;;6.70;;
10293;SDS011;5192;50.328;7.610;2023-10-13T10:11:16;10.02;;;7.70;;
10293;SDS011;5192;50.328;7.610;2023-10-13T10:22:41;11.38;;;6.78;;
10293;SDS011;5192;50.328;7.610;2023-10-13T10:25:17;10.07;;;6.85;;
10293;SDS011;5192;50.328;7.610;2023-10-13T10:28:02;11.65;;;7.22;;
10293;SDS011;5192;50.328;7.610;2023-10-13T10:30:37;10.88;;;6.85;;
10293;SDS011;5192;50.328;7.610;2023-10-13T10:33:08;9.88;;;7.30;;
10293;SDS011;5192;50.328;7.610;2023-10-13T10:35:47;9.30;;;6.97;;
10293;SDS011;5192;50.328;7.610;2023-10-13T10:38:29;10.45;;;7.05;;
10293;SDS011;5192;50.328;7.610;2023-10-13T10:41:05;9.93;;;7.53;;
10293;SDS011;5192;50.328;7.610;2023-10-13T10:46:17;8.43;;;6.78;;
10293;SDS011;5192;50.328;7.610;2023-10-13T10:48:51;10.93;;;7.22;;
10293;SDS011;5192;50.328;7.610;2023-10-13T10:51:27;11.10;;;6.63;;
10293;SDS011;5192;50.328;7.610;2023-10-13T10:53:58;10.68;;;7.05;;
10293;SDS011;5192;50.328;7.610;2023-10-13T10:56:47;11.13;;;7.05;;
10293;SDS011;5192;50.328;7.610;2023-10-13T10:59:18;10.40;;;7.35;;
10293;SDS011;5192;50.328;7.610;2023-10-13T11:01:46;9.63;;;7.25;;
10293;SDS011;5192;50.328;7.610;2023-10-13T11:04:17;8.75;;;7.60;;
10293;SDS011;5192;50.328;7.610;2023-10-13T11:06:50;9.32;;;6.95;;
10293;SDS011;5192;50.328;7.610;2023-10-13T11:09:31;10.20;;;7.43;;
10293;SDS011;5192;50.328;7.610;2023-10-13T11:17:49;8.48;;;7.28;;
10293;SDS011;5192;50.328;7.610;2023-10-13T11:20:19;9.10;;;5.85;;
10293;SDS011;5192;50.328;7.610;2023-10-13T11:22:59;12.77;;;6.65;;
10293;SDS011;5192;50.328;7.610;2023-10-13T11:25:30;7.75;;;6.40;;
10293;SDS011;5192;50.328;7.610;2023-10-13T11:30:54;8.63;;;6.28;;
10293;SDS011;5192;50.328;7.610;2023-10-13T11:33:33;9.07;;;6.53;;
10293;SDS011;5192;50.328;7.610;2023-10-13T11:36:01;10.27;;;6.20;;
10293;SDS011;5192;50.328;7.610;2023-10-13T11:38:32;9.10;;;6.78;;
10293;SDS011;5192;50.328;7.610;2023-10-13T11:41:18;8.20;;;6.70;;
10293;SDS011;5192;50.328;7.610;2023-10-13T11:43:48;11.45;;;6.63;;
10293;SDS011;5192;50.328;7.610;2023-10-13T11:46:16;7.22;;;6.30;;
10293;SDS011;5192;50.328;7.610;2023-10-13T11:49:03;6.78;;;6.10;;
10293;SDS011;5192;50.328;7.610;2023-10-13T11:51:56;8.95;;;6.35;;
10293;SDS011;5192;50.328;7.610;2023-10-13T11:54:50;9.95;;;6.63;;
10293;SDS011;5192;50.328;7.610;2023-10-13T11:57:16;8.75;;;6.03;;
10293;SDS011;5192;50.328;7.610;2023-10-13T11:59:46;7.60;;;5.65;;
10293;SDS011;5192;50.328;7.610;2023-10-13T12:02:23;7.20;;;6.03;;
10293;SDS011;5192;50.328;7.610;2023-10-13T12:04:56;8.32;;;6.25;;
10293;SDS011;5192;50.328;7.610;2023-10-13T12:07:25;10.68;;;7.40;;
10293;SDS011;5192;50.328;7.610;2023-10-13T12:10:06;8.05;;;6.20;;
10293;SDS011;5192;50.328;7.610;2023-10-13T12:12:40;12.93;;;7.63;;
10293;SDS011;5192;50.328;7.610;2023-10-13T12:15:10;12.07;;;7.35;;
10293;SDS011;5192;50.328;7.610;2023-10-13T12:17:50;9.63;;;6.50;;
10293;SDS011;5192;50.328;7.610;2023-10-13T12:20:17;8.80;;;6.57;;
10293;SDS011;5192;50.328;7.610;2023-10-13T12:22:58;8.93;;;6.32;;
10293;SDS011;5192;50.328;7.610;2023-10-13T12:25:37;10.02;;;6.43;;
10293;SDS011;5192;50.328;7.610;2023-10-13T12:28:25;8.13;;;6.15;;
10293;SDS011;5192;50.328;7.610;2023-10-13T12:30:54;12.52;;;7.00;;
10293;SDS011;5192;50.328;7.610;2023-10-13T12:33:25;7.95;;;6.03;;
10293;SDS011;5192;50.328;7.610;2023-10-13T12:36:15;6.95;;;5.72;;
10293;SDS011;5192;50.328;7.610;2023-10-13T12:39:01;11.07;;;6.68;;
10293;SDS011;5192;50.328;7.610;2023-10-13T12:41:35;8.73;;;6.22;;
10293;SDS011;5192;50.328;7.610;2023-10-13T12:44:34;29.23;;;10.02;;
10293;SDS011;5192;50.328;7.610;2023-10-13T12:47:20;18.67;;;7.53;;
10293;SDS011;5192;50.328;7.610;2023-10-13T12:50:06;9.70;;;6.05;;
10293;SDS011;5192;50.328;7.610;2023-10-13T12:52:40;9.35;;;6.07;;
10293;SDS011;5192;50.328;7.610;2023-10-13T12:55:11;9.13;;;5.75;;
10293;SDS011;5192;50.328;7.610;2023-10-13T12:57:41;7.57;;;6.22;;
10293;SDS011;5192;50.328;7.610;2023-10-13T13:00:12;10.45;;;6.32;;
10293;SDS011;5192;50.328;7.610;2023-10-13T13:02:42;10.52;;;5.43;;
10293;SDS011;5192;50.328;7.610;2023-10-13T13:05:09;9.52;;;5.50;;
10293;SDS011;5192;50.328;7.610;2023-10-13T13:07:37;9.30;;;5.78;;
10293;SDS011;5192;50.328;7.610;2023-10-13T13:10:18;8.00;;;5.57;;
10293;SDS011;5192;50.328;7.610;2023-10-13T13:12:48;11.40;;;5.95;;
10293;SDS011;5192;50.328;7.610;2023-10-13T13:15:15;11.88;;;5.32;;
10293;SDS011;5192;50.328;7.610;2023-10-13T13:17:50;12.05;;;6.43;;
10293;SDS011;5192;50.328;7.610;2023-10-13T13:20:17;8.98;;;5.70;;
10293;SDS011;5192;50.328;7.610;2023-10-13T13:22:56;7.50;;;5.70;;
10293;SDS011;5192;50.328;7.610;2023-10-13T13:25:28;8.35;;;5.22;;
10293;SDS011;5192;50.328;7.610;2023-10-13T13:27:55;9.55;;;5.90;;
10293;SDS011;5192;50.328;7.610;2023-10-13T13:30:27;9.35;;;5.97;;
10293;SDS011;5192;50.328;7.610;2023-10-13T13:33:00;9.43;;;6.00;;
10293;SDS011;5192;50.328;7.610;2023-10-13T13:35:37;10.48;;;6.35;;
10293;SDS011;5192;50.328;7.610;2023-10-13T13:38:05;10.75;;;5.82;;
10293;SDS011;5192;50.328;7.610;2023-10-13T13:41:05;11.20;;;5.63;;
10293;SDS011;5192;50.328;7.610;2023-10-13T13:43:44;9.60;;;5.78;;
10293;SDS011;5192;50.328;7.610;2023-10-13T13:46:23;8.98;;;6.10;;
10293;SDS011;5192;50.328;7.610;2023-10-13T13:48:57;8.70;;;5.85;;
10293;SDS011;5192;50.328;7.610;2023-10-13T13:51:26;10.77;;;6.22;;
10293;SDS011;5192;50.328;7.610;2023-10-13T13:53:55;8.85;;;6.03;;
10293;SDS011;5192;50.328;7.610;2023-10-13T13:56:24;9.57;;;5.85;;
10293;SDS011;5192;50.328;7.610;2023-10-13T13:58:55;10.63;;;6.40;;
10293;SDS011;5192;50.328;7.610;2023-10-13T14:01:22;9.18;;;5.70;;
10293;SDS011;5192;50.328;7.610;2023-10-13T14:03:56;7.47;;;5.72;;
10293;SDS011;5192;50.328;7.610;2023-10-13T14:06:27;12.07;;;5.78;;
10293;SDS011;5192;50.328;7.610;2023-10-13T14:08:58;11.70;;;5.80;;
10293;SDS011;5192;50.328;7.610;2023-10-13T14:11:32;9.88;;;5.38;;
10293;SDS011;5192;50.328;7.610;2023-10-13T14:16:38;11.70;;;6.40;;
10293;SDS011;5192;50.328;7.610;2023-10-13T14:19:15;7.68;;;5.75;;
10293;SDS011;5192;50.328;7.610;2023-10-13T14:21:53;6.53;;;5.55;;
10293;SDS011;5192;50.328;7.610;2023-10-13T14:24:21;8.77;;;5.47;;
10293;SDS011;5192;50.328;7.610;2023-10-13T14:26:57;8.57;;;5.80;;
10293;SDS011;5192;50.328;7.610;2023-10-13T14:29:59;9.23;;;5.43;;
10293;SDS011;5192;50.328;7.610;2023-10-13T14:32:28;9.85;;;5.50;;
10293;SDS011;5192;50.328;7.610;2023-10-13T14:34:54;8.52;;;6.57;;
10293;SDS011;5192;50.328;7.610;2023-10-13T14:37:22;9.55;;;5.65;;
10293;SDS011;5192;50.328;7.610;2023-10-13T14:39:59;8.77;;;6.40;;
10293;SDS011;5192;50.328;7.610;2023-10-13T14:42:27;8.63;;;5.68;;
10293;SDS011;5192;50.328;7.610;2023-10-13T14:45:01;7.45;;;5.78;;
10293;SDS011;5192;50.328;7.610;2023-10-13T14:47:37;10.65;;;6.00;;
10293;SDS011;5192;50.328;7.610;2023-10-13T14:50:05;7.78;;;5.70;;
10293;SDS011;5192;50.328;7.610;2023-10-13T14:52:41;8.35;;;5.47;;
10293;SDS011;5192;50.328;7.610;2023-10-13T14:55:09;9.68;;;5.63;;
10293;SDS011;5192;50.328;7.610;2023-10-13T14:57:46;10.75;;;5.30;;
10293;SDS011;5192;50.328;7.610;2023-10-13T15:00:16;10.32;;;5.35;;
10293;SDS011;5192;50.328;7.610;2023-10-13T15:02:51;12.45;;;6.07;;
10293;SDS011;5192;50.328;7.610;2023-10-13T15:05:19;9.98;;;5.35;;
10293;SDS011;5192;50.328;7.610;2023-10-13T15:07:47;9.85;;;7.30;;
10293;SDS011;5192;50.328;7.610;2023-10-13T15:10:14;8.02;;;5.60;;
10293;SDS011;5192;50.328;7.610;2023-10-13T15:12:44;7.18;;;5.90;;
10293;SDS011;5192;50.328;7.610;2023-10-13T15:15:10;7.53;;;5.50;;
10293;SDS011;5192;50.328;7.610;2023-10-13T15:17:45;9.40;;;5.50;;
10293;SDS011;5192;50.328;7.610;2023-10-13T15:20:13;10.55;;;6.18;;
10293;SDS011;5192;50.328;7.610;2023-10-13T15:22:48;7.63;;;5.30;;
10293;SDS011;5192;50.328;7.610;2023-10-13T15:25:15;11.20;;;8.52;;
10293;SDS011;5192;50.328;7.610;2023-10-13T15:27:48;9.50;;;6.10;;
10293;SDS011;5192;50.328;7.610;2023-10-13T15:30:36;9.40;;;5.60;;
10293;SDS011;5192;50.328;7.610;2023-10-13T15:33:13;7.05;;;5.55;;
10293;SDS011;5192;50.328;7.610;2023-10-13T15:35:40;9.50;;;5.45;;
10293;SDS011;5192;50.328;7.610;2023-10-13T15:38:10;10.30;;;5.88;;
10293;SDS011;5192;50.328;7.610;2023-10-13T15:40:47;8.63;;;5.97;;
10293;SDS011;5192;50.328;7.610;2023-10-13T15:43:21;8.85;;;5.65;;
10293;SDS011;5192;50.328;7.610;2023-10-13T15:45:46;10.15;;;6.38;;
10293;SDS011;5192;50.328;7.610;2023-10-13T15:48:14;11.48;;;6.45;;
10293;SDS011;5192;50.328;7.610;2023-10-13T15:50:42;8.98;;;6.55;;
10293;SDS011;5192;50.328;7.610;2023-10-13T15:53:09;11.85;;;6.03;;
10293;SDS011;5192;50.328;7.610;2023-10-13T15:55:39;7.93;;;6.22;;
10293;SDS011;5192;50.328;7.610;2023-10-13T15:58:12;10.70;;;6.03;;
10293;SDS011;5192;50.328;7.610;2023-10-13T16:00:38;9.50;;;6.18;;
10293;SDS011;5192;50.328;7.610;2023-10-13T16:03:04;10.85;;;6.07;;
10293;SDS011;5192;50.328;7.610;2023-10-13T16:05:38;11.00;;;5.85;;
10293;SDS011;5192;50.328;7.610;2023-10-13T16:08:08;9.18;;;5.63;;
10293;SDS011;5192;50.328;7.610;2023-10-13T16:10:38;8.05;;;5.43;;
10293;SDS011;5192;50.328;7.610;2023-10-13T16:13:06;16.33;;;6.25;;
10293;SDS011;5192;50.328;7.610;2023-10-13T16:15:41;8.13;;;5.70;;
10293;SDS011;5192;50.328;7.610;2023-10-13T16:18:10;8.68;;;5.72;;
10293;SDS011;5192;50.328;7.610;2023-10-13T16:20:37;6.70;;;5.47;;
10293;SDS011;5192;50.328;7.610;2023-10-13T16:23:03;9.52;;;5.78;;